createdAt,value
2023-04-08T00:00:09.810Z,954.08
2023-04-08T00:00:21.797Z,954.07
2023-04-08T00:00:33.788Z,954.07
2023-04-08T00:00:45.762Z,954.07
2023-04-08T00:00:57.746Z,954.06
2023-04-08T00:01:08.766Z,954.07
2023-04-08T00:01:20.777Z,954.06
2023-04-08T00:01:31.729Z,954.06
2023-04-08T00:01:42.883Z,954.07
2023-04-08T00:01:54.810Z,954.07
2023-04-08T00:02:06.793Z,954.07
2023-04-08T00:02:17.772Z,954.08
2023-04-08T00:02:28.946Z,954.08
2023-04-08T00:02:40.863Z,954.08
2023-04-08T00:02:51.802Z,954.08
2023-04-08T00:03:03.099Z,954.09
2023-04-08T00:03:13.934Z,954.09
2023-04-08T00:03:25.853Z,954.09
2023-04-08T00:03:37.947Z,954.09
2023-04-08T00:03:49.927Z,954.09
2023-04-08T00:04:01.964Z,954.10
2023-04-08T00:04:13.149Z,954.10
2023-04-08T00:04:23.862Z,954.10
2023-04-08T00:04:34.773Z,954.10
2023-04-08T00:04:45.783Z,954.10
2023-04-08T00:04:56.851Z,954.10
2023-04-08T00:05:07.729Z,954.09
2023-04-08T00:05:18.758Z,954.09
2023-04-08T00:05:30.753Z,954.08
2023-04-08T00:05:41.754Z,954.08
2023-04-08T00:05:52.768Z,954.08
2023-04-08T00:06:04.781Z,954.08
2023-04-08T00:06:16.749Z,954.07
2023-04-08T00:06:28.779Z,954.07
2023-04-08T00:06:40.763Z,954.07
2023-04-08T00:06:52.764Z,954.06
2023-04-08T00:07:03.787Z,954.06
2023-04-08T00:07:14.784Z,954.06
2023-04-08T00:07:26.783Z,954.06
2023-04-08T00:07:38.761Z,954.06
2023-04-08T00:07:49.790Z,954.06
2023-04-08T00:08:01.779Z,954.06
2023-04-08T00:08:13.756Z,954.06
2023-04-08T00:08:24.763Z,954.06
2023-04-08T00:08:35.781Z,954.05
2023-04-08T00:08:47.876Z,954.05
2023-04-08T00:08:58.790Z,954.05
2023-04-08T00:09:10.786Z,954.05
2023-04-08T00:09:22.796Z,954.04
2023-04-08T00:09:34.785Z,954.04
2023-04-08T00:09:46.793Z,954.03
2023-04-08T00:09:58.725Z,954.03
2023-04-08T00:10:09.763Z,954.03
2023-04-08T00:10:20.767Z,954.02
2023-04-08T00:10:32.744Z,954.02
2023-04-08T00:10:43.754Z,954.01
2023-04-08T00:10:54.780Z,954.00
2023-04-08T00:11:06.760Z,953.99
2023-04-08T00:11:18.747Z,953.98
2023-04-08T00:11:29.773Z,953.97
2023-04-08T00:11:41.769Z,953.96
2023-04-08T00:11:52.770Z,953.96
2023-04-08T00:12:04.758Z,953.95
2023-04-08T00:12:16.749Z,953.94
2023-04-08T00:12:27.788Z,953.93
2023-04-08T00:12:39.779Z,953.92
2023-04-08T00:12:51.755Z,953.92
2023-04-08T00:13:02.746Z,953.91
2023-04-08T00:13:13.753Z,953.91
2023-04-08T00:13:24.777Z,953.91
2023-04-08T00:13:35.796Z,953.90
2023-04-08T00:13:47.770Z,953.90
2023-04-08T00:13:59.743Z,953.91
2023-04-08T00:14:10.732Z,953.91
2023-04-08T00:14:21.756Z,953.91
2023-04-08T00:14:32.757Z,953.91
2023-04-08T00:14:43.760Z,953.92
2023-04-08T00:14:55.749Z,953.93
2023-04-08T00:15:06.766Z,953.93
2023-04-08T00:15:18.747Z,953.93
2023-04-08T00:15:29.835Z,953.94
2023-04-08T00:15:40.743Z,953.95
2023-04-08T00:15:51.761Z,953.95
2023-04-08T00:16:02.768Z,953.95
2023-04-08T00:16:13.861Z,953.95
2023-04-08T00:16:25.805Z,953.95
2023-04-08T00:16:37.773Z,953.95
2023-04-08T00:16:48.872Z,953.95
2023-04-08T00:17:00.865Z,953.95
2023-04-08T00:17:12.907Z,953.95
2023-04-08T00:17:24.804Z,953.95
2023-04-08T00:17:35.801Z,953.95
2023-04-08T00:17:46.846Z,953.95
2023-04-08T00:17:58.808Z,953.95
2023-04-08T00:18:10.808Z,953.96
2023-04-08T00:18:22.813Z,953.96
2023-04-08T00:18:34.781Z,953.96
2023-04-08T00:18:46.773Z,953.97
2023-04-08T00:18:58.790Z,953.97
2023-04-08T00:19:10.770Z,953.96
2023-04-08T00:19:21.780Z,953.97
2023-04-08T00:19:36.124Z,953.97
2023-04-08T00:19:45.764Z,953.97
2023-04-08T00:19:56.776Z,953.97
2023-04-08T00:20:08.750Z,953.98
2023-04-08T00:20:19.769Z,953.98
2023-04-08T00:20:31.749Z,953.99
2023-04-08T00:20:42.765Z,953.99
2023-04-08T00:20:54.747Z,954.00
2023-04-08T00:21:05.762Z,954.00
2023-04-08T00:21:16.748Z,954.00
2023-04-08T00:21:27.762Z,954.00
2023-04-08T00:21:38.766Z,954.00
2023-04-08T00:21:50.762Z,954.00
2023-04-08T00:22:01.778Z,954.00
2023-04-08T00:22:12.782Z,954.00
2023-04-08T00:22:24.757Z,954.00
2023-04-08T00:22:35.763Z,954.00
2023-04-08T00:22:46.740Z,954.00
2023-04-08T00:22:57.747Z,953.99
2023-04-08T00:23:08.755Z,953.99
2023-04-08T00:23:19.764Z,953.99
2023-04-08T00:23:31.768Z,953.99
2023-04-08T00:23:43.760Z,953.99
2023-04-08T00:23:54.760Z,953.99
2023-04-08T00:24:05.763Z,953.99
2023-04-08T00:24:17.746Z,953.99
2023-04-08T00:24:28.757Z,953.99
2023-04-08T00:24:39.760Z,953.99
2023-04-08T00:24:51.750Z,953.99
2023-04-08T00:25:02.733Z,953.99
2023-04-08T00:25:13.750Z,953.99
2023-04-08T00:25:25.558Z,953.98
2023-04-08T00:25:35.756Z,953.98
2023-04-08T00:25:46.769Z,953.97
2023-04-08T00:25:58.763Z,953.97
2023-04-08T00:26:10.669Z,953.97
2023-04-08T00:26:21.775Z,953.97
2023-04-08T00:26:33.749Z,953.96
2023-04-08T00:26:45.757Z,953.96
2023-04-08T00:26:56.792Z,953.96
2023-04-08T00:27:08.778Z,953.96
2023-04-08T00:27:19.793Z,953.95
2023-04-08T00:27:31.796Z,953.95
2023-04-08T00:27:42.743Z,953.95
2023-04-08T00:27:53.745Z,953.95
2023-04-08T00:28:04.756Z,953.95
2023-04-08T00:28:15.769Z,953.95
2023-04-08T00:28:27.771Z,953.95
2023-04-08T00:28:39.745Z,953.95
2023-04-08T00:28:51.223Z,953.96
2023-04-08T00:29:02.783Z,953.96
2023-04-08T00:29:14.754Z,953.96
2023-04-08T00:29:25.763Z,953.96
2023-04-08T00:29:36.760Z,953.96
2023-04-08T00:29:47.778Z,953.96
2023-04-08T00:29:58.781Z,953.96
2023-04-08T00:30:09.789Z,953.95
2023-04-08T00:30:21.781Z,953.95
2023-04-08T00:30:32.990Z,953.95
2023-04-08T00:30:43.769Z,953.95
2023-04-08T00:30:55.844Z,953.95
2023-04-08T00:31:07.897Z,953.95
2023-04-08T00:31:18.822Z,953.95
2023-04-08T00:31:29.819Z,953.94
2023-04-08T00:31:41.765Z,953.93
2023-04-08T00:31:53.780Z,953.93
2023-04-08T00:32:04.837Z,953.93
2023-04-08T00:32:16.811Z,953.92
2023-04-08T00:32:28.838Z,953.92
2023-04-08T00:32:39.867Z,953.92
2023-04-08T00:32:50.839Z,953.92
2023-04-08T00:33:01.936Z,953.92
2023-04-08T00:33:12.814Z,953.92
2023-04-08T00:33:24.789Z,953.91
2023-04-08T00:33:36.759Z,953.91
2023-04-08T00:33:47.776Z,953.91
2023-04-08T00:33:58.785Z,953.91
2023-04-08T00:34:09.791Z,953.92
2023-04-08T00:34:21.761Z,953.92
2023-04-08T00:34:32.779Z,953.92
2023-04-08T00:34:43.783Z,953.92
2023-04-08T00:34:54.797Z,953.92
2023-04-08T00:35:06.768Z,953.92
2023-04-08T00:35:17.770Z,953.92
2023-04-08T00:35:28.745Z,953.93
2023-04-08T00:35:39.820Z,953.93
2023-04-08T00:35:50.804Z,953.93
2023-04-08T00:36:01.773Z,953.93
2023-04-08T00:36:12.812Z,953.93
2023-04-08T00:36:23.775Z,953.93
2023-04-08T00:36:35.744Z,953.93
2023-04-08T00:36:46.745Z,953.93
2023-04-08T00:36:57.753Z,953.93
2023-04-08T00:37:09.743Z,953.93
2023-04-08T00:37:20.800Z,953.92
2023-04-08T00:37:32.788Z,953.92
2023-04-08T00:37:44.775Z,953.91
2023-04-08T00:37:56.749Z,953.91
2023-04-08T00:38:08.760Z,953.91
2023-04-08T00:38:19.755Z,953.91
2023-04-08T00:38:30.789Z,953.91
2023-04-08T00:38:42.766Z,953.90
2023-04-08T00:38:53.770Z,953.90
2023-04-08T00:39:04.775Z,953.90
2023-04-08T00:39:15.788Z,953.91
2023-04-08T00:39:27.774Z,953.91
2023-04-08T00:39:39.759Z,953.91
2023-04-08T00:39:50.767Z,953.91
2023-04-08T00:40:02.774Z,953.91
2023-04-08T00:40:14.761Z,953.92
2023-04-08T00:40:25.772Z,953.92
2023-04-08T00:40:36.780Z,953.92
2023-04-08T00:40:47.783Z,953.93
2023-04-08T00:40:58.816Z,953.93
2023-04-08T00:41:10.802Z,953.93
2023-04-08T00:41:22.778Z,953.93
2023-04-08T00:41:34.763Z,953.94
2023-04-08T00:41:45.795Z,953.94
2023-04-08T00:41:57.769Z,953.94
2023-04-08T00:42:08.778Z,953.94
2023-04-08T00:42:20.766Z,953.94
2023-04-08T00:42:31.777Z,953.95
2023-04-08T00:42:43.750Z,953.95
2023-04-08T00:42:54.761Z,953.95
2023-04-08T00:43:05.764Z,953.95
2023-04-08T00:43:17.747Z,953.96
2023-04-08T00:43:28.757Z,953.96
2023-04-08T00:43:39.781Z,953.96
2023-04-08T00:43:50.781Z,953.96
2023-04-08T00:44:02.788Z,953.96
2023-04-08T00:44:14.749Z,953.96
2023-04-08T00:44:25.760Z,953.96
2023-04-08T00:44:37.745Z,953.96
2023-04-08T00:44:48.774Z,953.97
2023-04-08T00:45:00.760Z,953.97
2023-04-08T00:45:11.819Z,953.97
2023-04-08T00:45:22.762Z,953.98
2023-04-08T00:45:34.748Z,953.98
2023-04-08T00:45:45.751Z,953.98
2023-04-08T00:45:56.818Z,953.99
2023-04-08T00:46:07.752Z,953.99
2023-04-08T00:46:18.756Z,953.99
2023-04-08T00:46:29.866Z,954.00
2023-04-08T00:46:41.832Z,954.00
2023-04-08T00:46:53.811Z,954.00
2023-04-08T00:47:05.795Z,954.00
2023-04-08T00:47:17.777Z,954.01
2023-04-08T00:47:28.812Z,954.01
2023-04-08T00:47:40.839Z,954.02
2023-04-08T00:47:53.093Z,954.02
2023-04-08T00:48:03.775Z,954.02
2023-04-08T00:48:14.732Z,954.02
2023-04-08T00:48:26.743Z,954.02
2023-04-08T00:48:37.751Z,954.02
2023-04-08T00:48:49.004Z,954.02
2023-04-08T00:49:00.778Z,954.02
2023-04-08T00:49:12.754Z,954.02
2023-04-08T00:49:23.760Z,954.01
2023-04-08T00:49:34.757Z,954.01
2023-04-08T00:49:46.734Z,954.01
2023-04-08T00:49:57.744Z,954.00
2023-04-08T00:50:09.759Z,954.00
2023-04-08T00:50:21.780Z,954.00
2023-04-08T00:50:33.785Z,953.99
2023-04-08T00:50:45.763Z,953.98
2023-04-08T00:50:56.762Z,953.98
2023-04-08T00:51:07.763Z,953.98
2023-04-08T00:51:19.770Z,953.97
2023-04-08T00:51:31.757Z,953.97
2023-04-08T00:51:42.766Z,953.97
2023-04-08T00:51:54.756Z,953.97
2023-04-08T00:52:05.758Z,953.97
2023-04-08T00:52:17.742Z,953.97
2023-04-08T00:52:28.755Z,953.97
2023-04-08T00:52:39.771Z,953.97
2023-04-08T00:52:51.748Z,953.96
2023-04-08T00:53:02.797Z,953.96
2023-04-08T00:53:14.761Z,953.96
2023-04-08T00:53:25.929Z,953.96
2023-04-08T00:53:36.775Z,953.97
2023-04-08T00:53:48.752Z,953.97
2023-04-08T00:53:59.772Z,953.97
2023-04-08T00:54:11.745Z,953.97
2023-04-08T00:54:22.797Z,953.98
2023-04-08T00:54:34.778Z,953.98
2023-04-08T00:54:45.782Z,953.98
2023-04-08T00:54:57.748Z,953.98
2023-04-08T00:55:08.789Z,953.99
2023-04-08T00:55:20.763Z,953.99
2023-04-08T00:55:31.767Z,954.00
2023-04-08T00:55:43.744Z,954.00
2023-04-08T00:55:54.741Z,954.01
2023-04-08T00:56:05.743Z,954.01
2023-04-08T00:56:16.743Z,954.01
2023-04-08T00:56:27.780Z,954.02
2023-04-08T00:56:38.731Z,954.02
2023-04-08T00:56:49.767Z,954.02
2023-04-08T00:57:00.766Z,954.02
2023-04-08T00:57:11.776Z,954.02
2023-04-08T00:57:23.744Z,954.02
2023-04-08T00:57:34.758Z,954.02
2023-04-08T00:57:45.795Z,954.02
2023-04-08T00:57:57.768Z,954.02
2023-04-08T00:58:09.742Z,954.03
2023-04-08T00:58:20.776Z,954.02
2023-04-08T00:58:32.786Z,954.03
2023-04-08T00:58:44.757Z,954.03
2023-04-08T00:58:55.741Z,954.04
2023-04-08T00:59:06.768Z,954.04
2023-04-08T00:59:17.772Z,954.04
2023-04-08T00:59:28.734Z,954.04
2023-04-08T00:59:39.755Z,954.05
2023-04-08T00:59:50.770Z,954.04
2023-04-08T01:00:01.770Z,954.05
2023-04-08T01:00:13.741Z,954.05
2023-04-08T01:00:24.748Z,954.05
2023-04-08T01:00:35.760Z,954.05
2023-04-08T01:00:47.789Z,954.05
2023-04-08T01:00:58.789Z,954.04
2023-04-08T01:01:10.803Z,954.05
2023-04-08T01:01:21.779Z,954.04
2023-04-08T01:01:33.854Z,954.04
2023-04-08T01:01:45.838Z,954.04
2023-04-08T01:01:57.938Z,954.04
2023-04-08T01:02:08.839Z,954.04
2023-04-08T01:02:20.961Z,954.05
2023-04-08T01:02:32.875Z,954.04
2023-04-08T01:02:43.910Z,954.05
2023-04-08T01:02:55.906Z,954.05
2023-04-08T01:03:08.016Z,954.05
2023-04-08T01:03:19.974Z,954.05
2023-04-08T01:03:31.884Z,954.05
2023-04-08T01:03:43.766Z,954.05
2023-04-08T01:03:54.770Z,954.06
2023-04-08T01:04:05.757Z,954.06
2023-04-08T01:04:16.966Z,954.06
2023-04-08T01:04:28.964Z,954.06
2023-04-08T01:04:40.738Z,954.06
2023-04-08T01:04:51.753Z,954.06
2023-04-08T01:05:02.741Z,954.06
2023-04-08T01:05:13.768Z,954.06
2023-04-08T01:05:24.796Z,954.06
2023-04-08T01:05:36.763Z,954.05
2023-04-08T01:05:48.741Z,954.05
2023-04-08T01:05:59.756Z,954.05
2023-04-08T01:06:10.779Z,954.05
2023-04-08T01:06:22.768Z,954.05
2023-04-08T01:06:33.786Z,954.06
2023-04-08T01:06:45.752Z,954.05
2023-04-08T01:06:56.764Z,954.05
2023-04-08T01:07:07.772Z,954.05
2023-04-08T01:07:19.744Z,954.05
2023-04-08T01:07:30.739Z,954.05
2023-04-08T01:07:41.751Z,954.05
2023-04-08T01:07:52.786Z,954.05
2023-04-08T01:08:04.786Z,954.05
2023-04-08T01:08:16.742Z,954.04
2023-04-08T01:08:27.785Z,954.04
2023-04-08T01:08:39.779Z,954.03
2023-04-08T01:08:51.992Z,954.03
2023-04-08T01:09:02.768Z,954.03
2023-04-08T01:09:14.738Z,954.03
2023-04-08T01:09:25.745Z,954.03
2023-04-08T01:09:36.764Z,954.02
2023-04-08T01:09:48.745Z,954.02
2023-04-08T01:09:59.751Z,954.02
2023-04-08T01:10:10.744Z,954.02
2023-04-08T01:10:21.758Z,954.01
2023-04-08T01:10:32.787Z,954.01
2023-04-08T01:10:43.783Z,954.01
2023-04-08T01:10:55.756Z,954.01
2023-04-08T01:11:06.762Z,954.01
2023-04-08T01:11:18.755Z,954.01
2023-04-08T01:11:29.782Z,954.01
2023-04-08T01:11:41.750Z,954.01
2023-04-08T01:11:52.818Z,954.01
2023-04-08T01:12:04.792Z,954.01
2023-04-08T01:12:16.780Z,954.01
2023-04-08T01:12:28.765Z,954.01
2023-04-08T01:12:39.783Z,954.02
2023-04-08T01:12:51.771Z,954.02
2023-04-08T01:13:03.746Z,954.02
2023-04-08T01:13:14.760Z,954.03
2023-04-08T01:13:25.771Z,954.03
2023-04-08T01:13:37.753Z,954.03
2023-04-08T01:13:48.760Z,954.03
2023-04-08T01:13:59.770Z,954.03
2023-04-08T01:14:10.789Z,954.03
2023-04-08T01:14:22.766Z,954.03
2023-04-08T01:14:34.748Z,954.04
2023-04-08T01:14:45.759Z,954.04
2023-04-08T01:14:56.754Z,954.04
2023-04-08T01:15:07.760Z,954.04
2023-04-08T01:15:18.772Z,954.04
2023-04-08T01:15:30.812Z,954.05
2023-04-08T01:15:41.768Z,954.06
2023-04-08T01:15:53.826Z,954.07
2023-04-08T01:16:04.793Z,954.07
2023-04-08T01:16:16.885Z,954.07
2023-04-08T01:16:27.848Z,954.07
2023-04-08T01:16:38.764Z,954.07
2023-04-08T01:16:50.802Z,954.06
2023-04-08T01:17:02.769Z,954.06
2023-04-08T01:17:13.768Z,954.05
2023-04-08T01:17:24.824Z,954.05
2023-04-08T01:17:35.805Z,954.04
2023-04-08T01:17:47.837Z,954.04
2023-04-08T01:17:59.798Z,954.04
2023-04-08T01:18:10.772Z,954.04
2023-04-08T01:18:22.774Z,954.04
2023-04-08T01:18:34.748Z,954.04
2023-04-08T01:18:45.754Z,954.03
2023-04-08T01:18:57.769Z,954.02
2023-04-08T01:19:09.746Z,954.02
2023-04-08T01:19:20.743Z,954.03
2023-04-08T01:19:31.769Z,954.02
2023-04-08T01:19:42.806Z,954.02
2023-04-08T01:19:54.749Z,954.02
2023-04-08T01:20:05.756Z,954.01
2023-04-08T01:20:16.759Z,954.01
2023-04-08T01:20:27.785Z,954.00
2023-04-08T01:20:39.789Z,954.00
2023-04-08T01:20:51.765Z,953.99
2023-04-08T01:21:03.764Z,953.98
2023-04-08T01:21:14.800Z,953.98
2023-04-08T01:21:26.776Z,953.98
2023-04-08T01:21:38.760Z,953.97
2023-04-08T01:21:50.762Z,953.96
2023-04-08T01:22:02.740Z,953.96
2023-04-08T01:22:13.747Z,953.95
2023-04-08T01:22:24.757Z,953.94
2023-04-08T01:22:35.767Z,953.94
2023-04-08T01:22:47.751Z,953.93
2023-04-08T01:22:58.755Z,953.93
2023-04-08T01:23:10.759Z,953.92
2023-04-08T01:23:21.771Z,953.92
2023-04-08T01:23:32.780Z,953.91
2023-04-08T01:23:44.739Z,953.90
2023-04-08T01:23:55.752Z,953.90
2023-04-08T01:24:06.774Z,953.89
2023-04-08T01:24:18.744Z,953.89
2023-04-08T01:24:29.759Z,953.88
2023-04-08T01:24:41.751Z,953.88
2023-04-08T01:24:52.755Z,953.87
2023-04-08T01:25:03.762Z,953.87
2023-04-08T01:25:14.770Z,953.86
2023-04-08T01:25:26.753Z,953.86
2023-04-08T01:25:37.757Z,953.85
2023-04-08T01:25:48.767Z,953.84
2023-04-08T01:26:00.775Z,953.84
2023-04-08T01:26:11.779Z,953.83
2023-04-08T01:26:23.741Z,953.82
2023-04-08T01:26:34.767Z,953.82
2023-04-08T01:26:45.766Z,953.82
2023-04-08T01:26:57.747Z,953.82
2023-04-08T01:27:08.762Z,953.82
2023-04-08T01:27:19.772Z,953.82
2023-04-08T01:27:30.762Z,953.83
2023-04-08T01:27:42.731Z,953.84
2023-04-08T01:27:53.762Z,953.85
2023-04-08T01:28:05.758Z,953.85
2023-04-08T01:28:16.778Z,953.86
2023-04-08T01:28:28.755Z,953.85
2023-04-08T01:28:39.767Z,953.86
2023-04-08T01:28:50.955Z,953.85
2023-04-08T01:29:02.780Z,953.86
2023-04-08T01:29:14.741Z,953.86
2023-04-08T01:29:25.734Z,953.87
2023-04-08T01:29:36.736Z,953.87
2023-04-08T01:29:47.745Z,953.88
2023-04-08T01:29:58.756Z,953.88
2023-04-08T01:30:09.770Z,953.89
2023-04-08T01:30:20.778Z,953.90
2023-04-08T01:30:32.788Z,953.90
2023-04-08T01:30:44.745Z,953.91
2023-04-08T01:30:55.816Z,953.91
2023-04-08T01:31:07.854Z,953.91
2023-04-08T01:31:19.790Z,953.91
2023-04-08T01:31:31.982Z,953.90
2023-04-08T01:31:42.850Z,953.90
2023-04-08T01:31:53.760Z,953.89
2023-04-08T01:32:05.748Z,953.88
2023-04-08T01:32:16.760Z,953.87
2023-04-08T01:32:28.768Z,953.87
2023-04-08T01:32:39.786Z,953.86
2023-04-08T01:32:51.823Z,953.87
2023-04-08T01:33:03.829Z,953.86
2023-04-08T01:33:15.785Z,953.86
2023-04-08T01:33:27.752Z,953.86
2023-04-08T01:33:38.750Z,953.86
2023-04-08T01:33:50.737Z,953.85
2023-04-08T01:34:01.759Z,953.85
2023-04-08T01:34:12.770Z,953.85
2023-04-08T01:34:24.746Z,953.85
2023-04-08T01:34:35.746Z,953.85
2023-04-08T01:34:46.967Z,953.85
2023-04-08T01:34:58.749Z,953.85
2023-04-08T01:35:09.759Z,953.85
2023-04-08T01:35:20.771Z,953.85
2023-04-08T01:35:32.788Z,953.85
2023-04-08T01:35:44.819Z,953.85
2023-04-08T01:35:56.852Z,953.84
2023-04-08T01:36:08.853Z,953.84
2023-04-08T01:36:20.772Z,953.84
2023-04-08T01:36:32.775Z,953.84
2023-04-08T01:36:44.741Z,953.85
2023-04-08T01:36:57.333Z,953.84
2023-04-08T01:37:07.766Z,953.84
2023-04-08T01:37:18.764Z,953.84
2023-04-08T01:37:29.755Z,953.85
2023-04-08T01:37:41.742Z,953.85
2023-04-08T01:37:52.745Z,953.85
2023-04-08T01:38:03.748Z,953.85
2023-04-08T01:38:14.756Z,953.86
2023-04-08T01:38:25.775Z,953.87
2023-04-08T01:38:37.776Z,953.87
2023-04-08T01:38:49.856Z,953.88
2023-04-08T01:39:01.790Z,953.89
2023-04-08T01:39:13.750Z,953.89
2023-04-08T01:39:25.747Z,953.88
2023-04-08T01:39:36.769Z,953.89
2023-04-08T01:39:48.748Z,953.89
2023-04-08T01:39:59.751Z,953.90
2023-04-08T01:40:10.777Z,953.89
2023-04-08T01:40:22.789Z,953.89
2023-04-08T01:40:34.792Z,953.90
2023-04-08T01:40:46.747Z,953.90
2023-04-08T01:40:58.772Z,953.91
2023-04-08T01:41:10.687Z,953.91
2023-04-08T01:41:20.737Z,953.92
2023-04-08T01:41:31.737Z,953.91
2023-04-08T01:41:42.763Z,953.91
2023-04-08T01:41:53.768Z,953.91
2023-04-08T01:42:05.754Z,953.91
2023-04-08T01:42:16.765Z,953.91
2023-04-08T01:42:27.775Z,953.91
2023-04-08T01:42:39.738Z,953.90
2023-04-08T01:42:50.774Z,953.90
2023-04-08T01:43:01.792Z,953.90
2023-04-08T01:43:12.739Z,953.90
2023-04-08T01:43:23.743Z,953.90
2023-04-08T01:43:34.766Z,953.90
2023-04-08T01:43:45.763Z,953.90
2023-04-08T01:43:56.737Z,953.89
2023-04-08T01:44:07.744Z,953.89
2023-04-08T01:44:18.743Z,953.89
2023-04-08T01:44:29.752Z,953.89
2023-04-08T01:44:40.752Z,953.89
2023-04-08T01:44:51.772Z,953.88
2023-04-08T01:45:02.772Z,953.89
2023-04-08T01:45:13.795Z,953.89
2023-04-08T01:45:25.772Z,953.89
2023-04-08T01:45:36.781Z,953.89
2023-04-08T01:45:48.746Z,953.89
2023-04-08T01:45:59.765Z,953.89
2023-04-08T01:46:10.824Z,953.89
2023-04-08T01:46:22.854Z,953.88
2023-04-08T01:46:34.835Z,953.87
2023-04-08T01:46:45.816Z,953.87
2023-04-08T01:46:56.772Z,953.86
2023-04-08T01:47:08.754Z,953.85
2023-04-08T01:47:19.758Z,953.85
2023-04-08T01:47:30.808Z,953.84
2023-04-08T01:47:42.806Z,953.84
2023-04-08T01:47:53.793Z,953.83
2023-04-08T01:48:04.798Z,953.83
2023-04-08T01:48:15.772Z,953.83
2023-04-08T01:48:27.747Z,953.83
2023-04-08T01:48:38.759Z,953.84
2023-04-08T01:48:50.095Z,953.84
2023-04-08T01:49:00.735Z,953.85
2023-04-08T01:49:11.734Z,953.85
2023-04-08T01:49:22.750Z,953.86
2023-04-08T01:49:33.773Z,953.86
2023-04-08T01:49:45.741Z,953.87
2023-04-08T01:49:56.768Z,953.88
2023-04-08T01:50:07.774Z,953.88
2023-04-08T01:50:19.743Z,953.88
2023-04-08T01:50:30.747Z,953.89
2023-04-08T01:50:42.770Z,953.90
2023-04-08T01:50:53.771Z,953.89
2023-04-08T01:51:04.765Z,953.90
2023-04-08T01:51:15.769Z,953.90
2023-04-08T01:51:26.771Z,953.90
2023-04-08T01:51:38.881Z,953.90
2023-04-08T01:51:49.765Z,953.91
2023-04-08T01:52:00.775Z,953.91
2023-04-08T01:52:12.758Z,953.91
2023-04-08T01:52:23.761Z,953.92
2023-04-08T01:52:34.776Z,953.92
2023-04-08T01:52:46.777Z,953.93
2023-04-08T01:52:57.797Z,953.93
2023-04-08T01:53:09.762Z,953.93
2023-04-08T01:53:21.739Z,953.93
2023-04-08T01:53:32.767Z,953.93
2023-04-08T01:53:43.764Z,953.92
2023-04-08T01:53:54.772Z,953.92
2023-04-08T01:54:05.792Z,953.92
2023-04-08T01:54:17.782Z,953.91
2023-04-08T01:54:28.798Z,953.91
2023-04-08T01:54:40.780Z,953.91
2023-04-08T01:54:51.785Z,953.91
2023-04-08T01:55:03.773Z,953.91
2023-04-08T01:55:14.785Z,953.91
2023-04-08T01:55:25.798Z,953.92
2023-04-08T01:55:37.770Z,953.92
2023-04-08T01:55:48.776Z,953.92
2023-04-08T01:55:59.777Z,953.92
2023-04-08T01:56:11.765Z,953.92
2023-04-08T01:56:22.790Z,953.92
2023-04-08T01:56:33.773Z,953.93
2023-04-08T01:56:44.770Z,953.93
2023-04-08T01:56:55.772Z,953.92
2023-04-08T01:57:07.745Z,953.92
2023-04-08T01:57:18.747Z,953.92
2023-04-08T01:57:29.746Z,953.92
2023-04-08T01:57:40.750Z,953.92
2023-04-08T01:57:51.760Z,953.91
2023-04-08T01:58:03.746Z,953.91
2023-04-08T01:58:14.749Z,953.90
2023-04-08T01:58:25.756Z,953.90
2023-04-08T01:58:37.752Z,953.89
2023-04-08T01:58:49.106Z,953.88
2023-04-08T01:59:00.772Z,953.88
2023-04-08T01:59:12.751Z,953.88
2023-04-08T01:59:23.764Z,953.87
2023-04-08T01:59:34.775Z,953.87
2023-04-08T01:59:46.759Z,953.87
2023-04-08T01:59:57.761Z,953.86
2023-04-08T02:00:09.768Z,953.86
2023-04-08T02:00:20.789Z,953.86
2023-04-08T02:00:32.779Z,953.86
2023-04-08T02:00:44.751Z,953.86
2023-04-08T02:00:55.760Z,953.86
2023-04-08T02:01:06.769Z,953.86
2023-04-08T02:01:17.771Z,953.87
2023-04-08T02:01:28.853Z,953.88
2023-04-08T02:01:40.864Z,953.88
2023-04-08T02:01:52.854Z,953.88
2023-04-08T02:02:03.845Z,953.87
2023-04-08T02:02:14.842Z,953.87
2023-04-08T02:02:26.907Z,953.87
2023-04-08T02:02:38.107Z,953.86
2023-04-08T02:02:48.893Z,953.86
2023-04-08T02:03:00.975Z,953.86
2023-04-08T02:03:11.890Z,953.86
2023-04-08T02:03:23.061Z,953.86
2023-04-08T02:03:34.872Z,953.86
2023-04-08T02:03:45.811Z,953.86
2023-04-08T02:03:56.824Z,953.86
2023-04-08T02:04:07.859Z,953.87
2023-04-08T02:04:19.919Z,953.87
2023-04-08T02:04:30.851Z,953.87
2023-04-08T02:04:41.901Z,953.87
2023-04-08T02:04:52.932Z,953.88
2023-04-08T02:05:04.731Z,953.88
2023-04-08T02:05:15.737Z,953.88
2023-04-08T02:05:26.745Z,953.89
2023-04-08T02:05:37.770Z,953.89
2023-04-08T02:05:48.780Z,953.89
2023-04-08T02:06:00.761Z,953.90
2023-04-08T02:06:11.786Z,953.90
2023-04-08T02:06:23.753Z,953.89
2023-04-08T02:06:35.744Z,953.89
2023-04-08T02:06:46.740Z,953.90
2023-04-08T02:06:57.744Z,953.90
2023-04-08T02:07:08.768Z,953.90
2023-04-08T02:07:19.768Z,953.90
2023-04-08T02:07:30.788Z,953.90
2023-04-08T02:07:41.781Z,953.91
2023-04-08T02:07:53.795Z,953.90
2023-04-08T02:08:05.770Z,953.90
2023-04-08T02:08:16.831Z,953.90
2023-04-08T02:08:28.807Z,953.90
2023-04-08T02:08:40.773Z,953.91
2023-04-08T02:08:52.920Z,953.90
2023-04-08T02:09:03.776Z,953.91
2023-04-08T02:09:14.784Z,953.92
2023-04-08T02:09:25.790Z,953.92
2023-04-08T02:09:36.792Z,953.91
2023-04-08T02:09:47.796Z,953.90
2023-04-08T02:09:59.763Z,953.89
2023-04-08T02:10:10.775Z,953.89
2023-04-08T02:10:22.769Z,953.89
2023-04-08T02:10:33.768Z,953.89
2023-04-08T02:10:44.787Z,953.89
2023-04-08T02:10:56.770Z,953.88
2023-04-08T02:11:07.773Z,953.88
2023-04-08T02:11:18.760Z,953.89
2023-04-08T02:11:29.788Z,953.89
2023-04-08T02:11:41.797Z,953.89
2023-04-08T02:11:53.783Z,953.89
2023-04-08T02:12:05.781Z,953.88
2023-04-08T02:12:17.762Z,953.89
2023-04-08T02:12:28.794Z,953.89
2023-04-08T02:12:40.766Z,953.89
2023-04-08T02:12:51.771Z,953.89
2023-04-08T02:13:02.781Z,953.90
2023-04-08T02:13:13.783Z,953.90
2023-04-08T02:13:25.762Z,953.91
2023-04-08T02:13:36.778Z,953.91
2023-04-08T02:13:47.774Z,953.91
2023-04-08T02:13:59.745Z,953.90
2023-04-08T02:14:10.741Z,953.90
2023-04-08T02:14:21.748Z,953.90
2023-04-08T02:14:32.754Z,953.90
2023-04-08T02:14:43.773Z,953.89
2023-04-08T02:14:54.779Z,953.89
2023-04-08T02:15:05.788Z,953.89
2023-04-08T02:15:17.797Z,953.88
2023-04-08T02:15:29.767Z,953.88
2023-04-08T02:15:40.782Z,953.88
2023-04-08T02:15:52.786Z,953.88
2023-04-08T02:16:03.813Z,953.89
2023-04-08T02:16:15.820Z,953.89
2023-04-08T02:16:27.834Z,953.89
2023-04-08T02:16:40.095Z,953.89
2023-04-08T02:16:50.757Z,953.89
2023-04-08T02:17:01.766Z,953.89
2023-04-08T02:17:12.777Z,953.88
2023-04-08T02:17:24.754Z,953.88
2023-04-08T02:17:35.931Z,953.88
2023-04-08T02:17:46.848Z,953.88
2023-04-08T02:17:57.803Z,953.88
2023-04-08T02:18:08.851Z,953.88
2023-04-08T02:18:20.801Z,953.88
2023-04-08T02:18:32.765Z,953.88
2023-04-08T02:18:43.762Z,953.88
2023-04-08T02:18:54.778Z,953.87
2023-04-08T02:19:05.785Z,953.86
2023-04-08T02:19:17.771Z,953.85
2023-04-08T02:19:28.775Z,953.85
2023-04-08T02:19:39.790Z,953.84
2023-04-08T02:19:51.759Z,953.84
2023-04-08T02:20:02.795Z,953.83
2023-04-08T02:20:14.767Z,953.82
2023-04-08T02:20:25.782Z,953.82
2023-04-08T02:20:37.752Z,953.81
2023-04-08T02:20:48.803Z,953.81
2023-04-08T02:21:00.772Z,953.80
2023-04-08T02:21:11.777Z,953.81
2023-04-08T02:21:22.772Z,953.81
2023-04-08T02:21:33.782Z,953.81
2023-04-08T02:21:45.755Z,953.81
2023-04-08T02:21:56.750Z,953.82
2023-04-08T02:22:07.757Z,953.82
2023-04-08T02:22:18.764Z,953.82
2023-04-08T02:22:29.775Z,953.81